Time;durP1;ratioP1;P1;durP2;ratioP2;P2;SDS_P1;SDS_P2;PMS_P1;PMS_P2;Temp;Humidity;BMP_temperature;BMP_pressure;BME280_temperature;BME280_humidity;BME280_pressure;Samples;Min_cycle;Max_cycle;Signal;HPM_P1;HPM_P2
2021/03/03 00:01:53;;;;;;;82.28;41.00;;;26.30;2201.60;;;;;;5087691;28;20068;-73
2021/03/03 00:04:18;;;;;;;98.13;46.35;;;26.30;2201.60;;;;;;5070122;28;20028;-74
2021/03/03 00:06:44;;;;;;;89.10;42.20;;;26.30;2201.60;;;;;;5083271;28;20076;-74
2021/03/03 00:09:10;;;;;;;99.35;49.80;;;26.20;2201.60;;;;;;5089586;28;20431;-74
2021/03/03 00:11:35;;;;;;;88.28;44.63;;;26.20;2201.60;;;;;;5095450;28;20050;-74
2021/03/03 00:14:01;;;;;;;95.53;44.47;;;26.10;2201.60;;;;;;5079507;28;20023;-72
2021/03/03 00:16:27;;;;;;;113.13;52.92;;;26.10;2201.60;;;;;;5090112;28;20028;-72
2021/03/03 00:18:53;;;;;;;78.22;40.30;;;26.00;2201.60;;;;;;5090261;28;20024;-74
2021/03/03 00:21:18;;;;;;;86.30;41.10;;;25.90;2201.60;;;;;;5090168;28;20051;-74
2021/03/03 00:23:44;;;;;;;97.78;44.97;;;25.80;2201.60;;;;;;5082503;28;20032;-74
2021/03/03 00:26:10;;;;;;;88.35;43.83;;;25.80;2201.60;;;;;;5091869;28;20024;-74
2021/03/03 00:28:35;;;;;;;88.22;42.40;;;25.90;2201.60;;;;;;5093694;28;20551;-74
2021/03/03 00:31:01;;;;;;;83.60;42.40;;;25.90;2201.60;;;;;;5093993;28;20487;-73
2021/03/03 00:33:27;;;;;;;98.07;44.20;;;25.90;2201.60;;;;;;5092782;28;20430;-72
2021/03/03 00:35:53;;;;;;;99.03;43.95;;;25.90;2201.60;;;;;;5093509;28;20020;-73
2021/03/03 00:38:19;;;;;;;90.00;41.28;;;26.00;2201.60;;;;;;5093368;28;20027;-73
2021/03/03 00:40:45;;;;;;;87.68;39.85;;;26.00;2201.60;;;;;;5093445;28;20066;-73
2021/03/03 00:43:10;;;;;;;89.40;39.60;;;26.00;2201.60;;;;;;5093330;28;20031;-73
2021/03/03 00:45:36;;;;;;;73.85;36.55;;;26.00;2201.60;;;;;;5093582;28;20024;-72
2021/03/03 00:48:02;;;;;;;73.80;34.53;;;26.00;2201.60;;;;;;5093476;28;20024;-72
2021/03/03 00:50:28;;;;;;;73.78;34.47;;;26.00;2201.60;;;;;;5092961;28;20122;-72
2021/03/03 00:52:53;;;;;;;60.70;30.90;;;25.90;2201.60;;;;;;5093480;28;20076;-74
2021/03/03 00:55:19;;;;;;;70.82;33.92;;;26.00;2201.60;;;;;;5093297;28;20487;-73
2021/03/03 00:57:45;;;;;;;93.38;41.15;;;25.90;2201.60;;;;;;5093271;28;20028;-72
2021/03/03 01:00:12;;;;;;;86.53;39.42;;;25.90;2201.60;;;;;;5093101;28;20024;-72
2021/03/03 01:02:37;;;;;;;82.15;39.17;;;25.90;2201.60;;;;;;5092971;28;20089;-72
2021/03/03 01:05:04;;;;;;;79.47;39.45;;;25.80;2201.60;;;;;;5093562;28;20036;-72
2021/03/03 01:07:30;;;;;;;80.07;38.60;;;25.80;2201.60;;;;;;5103838;28;20385;-72
2021/03/03 01:09:55;;;;;;;83.40;39.72;;;25.80;2201.60;;;;;;5105176;28;20024;-72
2021/03/03 01:12:21;;;;;;;86.65;43.13;;;25.80;2201.60;;;;;;5089801;28;20503;-72
2021/03/03 01:14:47;;;;;;;91.30;42.90;;;25.70;2201.60;;;;;;5065583;28;20020;-72
2021/03/03 01:17:12;;;;;;;89.00;42.03;;;25.70;2201.60;;;;;;5092653;28;20496;-72
2021/03/03 01:19:38;;;;;;;79.65;38.45;;;25.60;2201.60;;;;;;5092682;28;20476;-72
2021/03/03 01:22:04;;;;;;;86.65;39.60;;;25.60;2201.60;;;;;;5083156;28;20369;-72
2021/03/03 01:24:30;;;;;;;79.15;38.35;;;0.90;2201.60;;;;;;5087274;28;20020;-73
2021/03/03 01:26:55;;;;;;;77.13;37.13;;;0.80;2201.60;;;;;;5091163;28;20032;-72
2021/03/03 01:29:21;;;;;;;74.50;36.92;;;0.70;2201.60;;;;;;5092087;28;20073;-72
2021/03/03 01:31:46;;;;;;;81.90;39.72;;;0.70;2201.60;;;;;;5091888;28;20031;-71
2021/03/03 01:34:12;;;;;;;84.55;41.25;;;0.70;2201.60;;;;;;5092703;28;20031;-72
2021/03/03 01:36:38;;;;;;;85.18;41.45;;;0.70;2201.60;;;;;;5092577;28;20472;-72
2021/03/03 01:39:04;;;;;;;90.53;43.90;;;0.50;2201.60;;;;;;5092304;28;20035;-72
2021/03/03 01:41:29;;;;;;;91.07;43.40;;;0.40;2201.60;;;;;;5091987;28;20027;-71
2021/03/03 01:43:55;;;;;;;106.50;47.60;;;0.30;2201.60;;;;;;5092682;28;20035;-74
2021/03/03 01:46:22;;;;;;;101.20;46.13;;;0.10;2201.60;;;;;;5092503;28;20190;-72
2021/03/03 01:48:48;;;;;;;87.43;41.30;;;0.10;2201.60;;;;;;5091981;28;20106;-74
2021/03/03 01:51:15;;;;;;;78.68;36.58;;;0.10;2201.60;;;;;;5092063;28;20050;-73
2021/03/03 01:53:41;;;;;;;76.88;37.35;;;0.00;2201.60;;;;;;5092161;28;20020;-73
2021/03/03 01:56:06;;;;;;;79.57;36.75;;;12.90;2201.60;;;;;;5092158;28;20020;-74
2021/03/03 01:58:32;;;;;;;71.18;35.00;;;12.90;2201.60;;;;;;5073278;28;20031;-72
2021/03/03 02:00:58;;;;;;;71.43;35.60;;;12.90;2201.60;;;;;;5092323;28;20145;-73
2021/03/03 02:03:24;;;;;;;74.70;37.50;;;0.00;2201.60;;;;;;5091583;28;20074;-73
2021/03/03 02:05:57;;;;;;;82.75;40.13;;;0.00;2201.60;;;;;;5073865;28;20476;-72
2021/03/03 02:08:37;;;;;;;93.90;44.40;;;0.00;2201.60;;;;;;5091377;28;20451;-72
2021/03/03 02:11:53;;;;;;;126.25;54.28;;;0.00;2201.60;;;;;;5091912;28;20375;-72
2021/03/03 02:14:24;;;;;;;120.53;53.10;;;0.00;2201.60;;;;;;5008447;28;20097;-72
2021/03/03 02:16:51;;;;;;;107.63;47.58;;;0.00;2201.60;;;;;;5077916;28;20031;-72
2021/03/03 02:19:23;;;;;;;92.95;43.10;;;0.00;2201.60;;;;;;5072916;28;20419;-73
2021/03/03 02:22:16;;;;;;;105.35;45.08;;;12.90;2201.60;;;;;;5083738;28;20033;-72
2021/03/03 02:24:52;;;;;;;95.63;44.65;;;12.90;2201.60;;;;;;5074713;28;20024;-72
2021/03/03 02:27:21;;;;;;;97.47;44.97;;;13.00;2201.60;;;;;;5089889;28;20031;-73
2021/03/03 02:29:47;;;;;;;96.75;45.65;;;13.00;2201.60;;;;;;5091137;28;20102;-73
2021/03/03 02:32:15;;;;;;;92.78;44.53;;;12.90;2201.60;;;;;;5091429;28;20058;-72
2021/03/03 02:34:42;;;;;;;92.30;45.47;;;12.90;2201.60;;;;;;5091453;28;20016;-72
2021/03/03 02:37:08;;;;;;;96.65;45.15;;;12.90;2201.60;;;;;;5091323;28;20082;-75
2021/03/03 02:39:35;;;;;;;95.38;45.17;;;12.90;2201.60;;;;;;5090940;28;20020;-75
2021/03/03 02:42:01;;;;;;;96.97;44.78;;;12.90;2201.60;;;;;;5091443;28;20024;-75
2021/03/03 02:44:27;;;;;;;91.25;44.80;;;0.00;2201.60;;;;;;5090464;28;20157;-73
2021/03/03 02:46:53;;;;;;;97.30;45.58;;;0.00;2201.60;;;;;;5091622;28;20127;-74
2021/03/03 02:49:21;;;;;;;109.70;50.53;;;0.00;2201.60;;;;;;5091002;28;20031;-72
2021/03/03 02:51:47;;;;;;;106.35;51.10;;;0.10;2201.60;;;;;;5091085;28;20028;-73
2021/03/03 02:54:14;;;;;;;98.13;47.05;;;0.10;2201.60;;;;;;5091282;28;20020;-73
2021/03/03 02:56:40;;;;;;;92.07;44.58;;;0.10;2201.60;;;;;;5091261;28;20135;-73
2021/03/03 02:59:14;;;;;;;92.07;43.13;;;0.10;2201.60;;;;;;5091075;28;20467;-73
2021/03/03 03:01:41;;;;;;;90.32;41.75;;;0.10;2201.60;;;;;;5091118;28;20081;-73
2021/03/03 03:04:11;;;;;;;88.53;40.55;;;0.20;2201.60;;;;;;5091435;28;20061;-74
2021/03/03 03:06:40;;;;;;;81.07;38.43;;;0.20;2201.60;;;;;;5082979;28;20072;-76
2021/03/03 03:09:13;;;;;;;84.88;38.85;;;0.20;2201.60;;;;;;5090570;28;20089;-73
2021/03/03 03:11:48;;;;;;;82.38;38.53;;;0.10;2201.60;;;;;;5090736;28;20365;-73
2021/03/03 03:14:19;;;;;;;76.38;38.38;;;0.10;2201.60;;;;;;5082762;28;20070;-74
2021/03/03 03:16:46;;;;;;;;;;;0.10;2201.60;;;;;;5088212;28;20020;-72
2021/03/03 03:19:15;;;;;;;69.78;33.05;;;12.90;2201.60;;;;;;5090300;28;19953;-73
2021/03/03 03:21:44;;;;;;;77.40;37.05;;;13.10;2201.60;;;;;;5084400;28;20380;-75
2021/03/03 03:24:11;;;;;;;85.20;37.90;;;13.30;2201.60;;;;;;5086581;28;20031;-75
2021/03/03 03:26:38;;;;;;;78.97;37.60;;;13.50;2201.60;;;;;;5089262;28;20396;-73
2021/03/03 03:29:06;;;;;;;67.50;33.25;;;13.60;2201.60;;;;;;5088650;28;20472;-80
2021/03/03 03:31:32;;;;;;;59.75;30.65;;;13.60;2201.60;;;;;;5090868;28;20032;-72
2021/03/03 03:33:59;;;;;;;54.58;28.70;;;13.70;2201.60;;;;;;5090283;28;20025;-72
2021/03/03 03:36:26;;;;;;;57.63;28.58;;;38.40;2201.60;;;;;;5090918;28;20061;-72
2021/03/03 03:38:51;;;;;;;61.92;31.70;;;38.40;2201.60;;;;;;5090283;28;20040;-72
2021/03/03 03:41:18;;;;;;;59.00;30.67;;;38.40;2201.60;;;;;;5090423;28;20117;-73
2021/03/03 03:43:45;;;;;;;61.65;30.23;;;38.40;2201.60;;;;;;5090561;28;20020;-72
2021/03/03 03:46:12;;;;;;;62.58;31.65;;;38.40;2201.60;;;;;;5090506;28;20024;-72
2021/03/03 03:48:39;;;;;;;63.65;32.05;;;38.40;2201.60;;;;;;5093815;28;20019;-76
2021/03/03 03:51:06;;;;;;;67.72;34.47;;;38.40;2201.60;;;;;;5072003;28;20031;-73
2021/03/03 03:53:33;;;;;;;76.65;36.75;;;38.40;2201.60;;;;;;5090249;28;20016;-72
2021/03/03 03:55:59;;;;;;;87.78;40.45;;;38.40;2201.60;;;;;;5094226;28;20016;-82
2021/03/03 03:58:25;;;;;;;90.07;42.20;;;38.40;2201.60;;;;;;5093880;28;20016;-73
2021/03/03 04:00:50;;;;;;;84.68;41.13;;;38.50;2201.60;;;;;;5095126;28;20357;-72
2021/03/03 04:03:16;;;;;;;85.15;41.20;;;38.40;2201.60;;;;;;5093320;28;20032;-73
2021/03/03 04:05:42;;;;;;;84.72;38.15;;;38.40;2201.60;;;;;;5094157;28;20774;-72
2021/03/03 04:08:08;;;;;;;73.20;34.85;;;38.40;2201.60;;;;;;5093985;28;20446;-73
2021/03/03 04:10:34;;;;;;;77.25;37.47;;;38.50;2201.60;;;;;;5093960;28;20038;-73
2021/03/03 04:13:00;;;;;;;82.68;37.20;;;38.50;2201.60;;;;;;5094094;28;20042;-72
2021/03/03 04:15:26;;;;;;;75.85;36.92;;;38.40;2201.60;;;;;;5095551;28;20024;-72
2021/03/03 04:17:52;;;;;;;80.22;39.45;;;38.40;2201.60;;;;;;5072952;28;20419;-73
2021/03/03 04:20:19;;;;;;;95.13;42.60;;;38.40;2201.60;;;;;;5093577;28;20024;-73
2021/03/03 04:22:46;;;;;;;89.22;42.92;;;38.40;2201.60;;;;;;5094197;28;20051;-73
2021/03/03 04:25:14;;;;;;;93.68;45.15;;;13.70;2201.60;;;;;;5093871;28;20055;-72
2021/03/03 04:27:40;;;;;;;93.53;43.40;;;13.70;2201.60;;;;;;5089324;28;20024;-72
2021/03/03 04:30:09;;;;;;;98.90;45.28;;;13.70;2201.60;;;;;;5093656;28;20024;-75
2021/03/03 04:32:34;;;;;;;103.40;45.33;;;13.70;2201.60;;;;;;5094213;28;20039;-80
2021/03/03 04:35:01;;;;;;;188.30;79.03;;;13.70;2201.60;;;;;;5093519;28;20016;-72
2021/03/03 04:37:27;;;;;;;131.63;58.22;;;38.40;2201.60;;;;;;5093582;28;20062;-72
2021/03/03 04:39:53;;;;;;;169.90;76.40;;;38.40;2201.60;;;;;;5093277;28;20047;-72
2021/03/03 04:42:18;;;;;;;155.20;70.30;;;38.40;2201.60;;;;;;5093499;28;20465;-72
2021/03/03 04:44:44;;;;;;;138.75;66.25;;;13.70;2201.60;;;;;;5072296;28;20028;-72
2021/03/03 04:47:10;;;;;;;135.73;64.13;;;13.70;2201.60;;;;;;5093189;28;20032;-72
2021/03/03 04:49:35;;;;;;;132.77;58.08;;;13.70;2201.60;;;;;;5075074;28;20039;-73
2021/03/03 04:52:01;;;;;;;111.97;52.88;;;13.70;2201.60;;;;;;5093528;28;20020;-72
2021/03/03 04:54:27;;;;;;;96.78;45.40;;;13.70;2201.60;;;;;;5096504;28;20028;-72
2021/03/03 04:56:53;;;;;;;79.93;38.90;;;38.40;2201.60;;;;;;5093436;28;20028;-72
2021/03/03 04:59:18;;;;;;;68.72;34.22;;;38.50;2201.60;;;;;;5092671;28;20034;-76
2021/03/03 05:01:44;;;;;;;67.35;32.45;;;38.50;2201.60;;;;;;5093667;28;20097;-75
2021/03/03 05:04:10;;;;;;;66.97;33.05;;;38.50;2201.60;;;;;;5093400;28;20027;-72
2021/03/03 05:06:35;;;;;;;70.30;33.13;;;38.60;2201.60;;;;;;5090689;28;20466;-73
2021/03/03 05:09:01;;;;;;;84.28;36.47;;;38.70;2201.60;;;;;;5085876;28;20423;-72
2021/03/03 05:11:27;;;;;;;111.10;45.38;;;38.70;2201.60;;;;;;5093832;28;20127;-75
2021/03/03 05:13:52;;;;;;;72.93;33.55;;;38.70;2201.60;;;;;;5090550;28;20024;-74
2021/03/03 05:16:18;;;;;;;69.90;31.30;;;38.60;2201.60;;;;;;5092764;28;20024;-72
2021/03/03 05:18:44;;;;;;;65.40;31.45;;;38.50;2201.60;;;;;;5092883;28;20388;-72
2021/03/03 05:21:10;;;;;;;67.93;31.55;;;38.50;2201.60;;;;;;5090379;28;20059;-73
2021/03/03 05:23:37;;;;;;;74.82;34.70;;;38.50;2201.60;;;;;;5084567;28;20031;-72
2021/03/03 05:26:04;;;;;;;81.05;37.63;;;38.40;2201.60;;;;;;5091567;28;20070;-72
2021/03/03 05:28:31;;;;;;;78.78;37.15;;;38.40;2201.60;;;;;;5092557;28;20035;-72
2021/03/03 05:30:57;;;;;;;79.70;37.72;;;13.60;2201.60;;;;;;5092301;28;20077;-75
2021/03/03 05:33:29;;;;;;;81.55;39.03;;;13.30;2201.60;;;;;;5074706;28;20020;-75
2021/03/03 05:35:57;;;;;;;77.03;38.30;;;13.00;2201.60;;;;;;5092532;28;20412;-71
2021/03/03 05:38:23;;;;;;;76.32;36.92;;;0.10;2201.60;;;;;;5092332;28;20024;-72
2021/03/03 05:40:52;;;;;;;78.95;39.35;;;0.40;2201.60;;;;;;5092368;28;20020;-72
2021/03/03 05:43:18;;;;;;;78.47;37.15;;;0.50;2201.60;;;;;;5092282;28;20397;-72
2021/03/03 05:45:45;;;;;;;78.05;37.28;;;0.60;2201.60;;;;;;5092460;28;20016;-79
2021/03/03 05:48:25;;;;;;;68.60;33.42;;;0.70;2201.60;;;;;;5097248;28;20043;-72
2021/03/03 05:51:02;;;;;;;87.38;40.80;;;0.90;2201.60;;;;;;5091949;28;20369;-75
2021/03/03 05:53:30;;;;;;;82.82;39.83;;;25.70;2201.60;;;;;;5087821;28;20026;-72
2021/03/03 05:55:57;;;;;;;87.70;38.92;;;26.10;2201.60;;;;;;5092530;28;20020;-72
2021/03/03 05:58:24;;;;;;;90.80;42.67;;;51.30;2227.20;;;;;;5091529;28;20024;-72
2021/03/03 06:00:50;;;;;;;94.10;41.67;;;77.10;2227.20;;;;;;5097276;28;20112;-72
2021/03/03 06:03:19;;;;;;;86.00;40.70;;;102.60;2227.20;;;;;;5100601;28;20085;-72
2021/03/03 06:05:48;;;;;;;124.72;53.05;;;102.80;2201.60;;;;;;5091553;28;20152;-75
2021/03/03 06:08:19;;;;;;;102.20;45.42;;;102.50;2201.60;;;;;;5095357;28;20121;-73
2021/03/03 06:10:45;;;;;;;89.72;37.08;;;102.40;2227.20;;;;;;5075936;28;20411;-75
2021/03/03 06:13:11;;;;;;;64.53;32.47;;;102.60;2201.60;;;;;;5100679;28;20035;-71
2021/03/03 06:15:38;;;;;;;60.70;31.52;;;102.60;2201.60;;;;;;5105229;28;20020;-70
2021/03/03 06:18:09;;;;;;;64.10;30.85;;;102.60;2201.60;;;;;;5091551;28;20435;-72
2021/03/03 06:20:38;;;;;;;59.00;30.25;;;102.80;2176.00;;;;;;5091358;28;20020;-72
2021/03/03 06:23:14;;;;;;;77.90;41.08;;;103.00;2150.40;;;;;;5080799;28;20016;-75
2021/03/03 06:25:41;;;;;;;79.97;40.38;;;103.30;2099.20;;;;;;5090034;28;20066;-73
2021/03/03 06:28:08;;;;;;;70.97;35.85;;;128.20;2073.60;;;;;;5091474;28;20427;-73
2021/03/03 06:30:34;;;;;;;67.85;36.55;;;128.50;2048.00;;;;;;5099136;28;20043;-72
2021/03/03 06:33:06;;;;;;;74.55;35.75;;;128.70;2048.00;;;;;;5106732;28;20070;-71
2021/03/03 06:35:35;;;;;;;103.78;42.03;;;153.60;2022.40;;;;;;5092191;28;20031;-75
2021/03/03 06:38:01;;;;;;;114.22;45.03;;;153.80;1996.80;;;;;;5109123;28;20069;-70
2021/03/03 06:40:27;;;;;;;118.03;46.60;;;154.40;1894.40;;;;;;5107873;28;20031;-73
2021/03/03 06:42:55;;;;;;;66.80;34.08;;;154.50;1868.80;;;;;;5098853;28;20019;-72
2021/03/03 06:45:31;;;;;;;44.40;25.42;;;179.20;1868.80;;;;;;5091008;28;20012;-78
2021/03/03 06:48:00;;;;;;;50.00;27.25;;;154.50;1868.80;;;;;;5091156;28;20024;-72
2021/03/03 06:50:36;;;;;;;57.03;33.08;;;179.40;1843.20;;;;;;5090844;28;20024;-74
2021/03/03 06:53:02;;;;;;;61.75;33.75;;;256.20;1561.60;;;;;;5091424;28;20070;-73
2021/03/03 06:55:48;;;;;;;81.35;39.13;;;333.30;1356.80;;;;;;5090842;28;20024;-73
2021/03/03 06:58:30;;;;;;;80.22;41.80;;;410.10;1177.60;;;;;;5090899;28;20008;-74
2021/03/03 07:00:57;;;;;;;97.90;38.40;;;486.60;998.40;;;;;;5084014;28;20377;-75
2021/03/03 07:03:36;;;;;;;70.50;37.60;;;487.00;998.40;;;;;;5100505;28;20054;-74
2021/03/03 07:06:03;;;;;;;55.13;31.35;;;563.20;921.60;;;;;;5084940;28;20469;-76
2021/03/03 07:08:29;;;;;;;65.50;36.38;;;589.20;844.80;;;;;;5090727;28;20028;-74
2021/03/03 07:10:55;;;;;;;56.80;32.40;;;564.10;844.80;;;;;;5091129;28;20024;-74
2021/03/03 07:13:40;;;;;;;51.42;33.33;;;589.20;844.80;;;;;;5105785;28;20045;-73
2021/03/03 07:16:08;;;;;;;52.25;34.05;;;615.20;768.00;;;;;;5102565;28;20024;-74
2021/03/03 07:18:38;;;;;;;51.00;34.28;;;614.60;793.60;;;;;;5093682;28;20024;-75
2021/03/03 07:21:06;;;;;;;67.40;33.17;;;589.00;844.80;;;;;;5103232;28;20153;-73
2021/03/03 07:23:47;;;;;;;53.40;34.78;;;589.50;819.20;;;;;;5099821;28;20140;-73
2021/03/03 07:26:14;;;;;;;;;;;640.30;742.40;;;;;;5071629;28;20028;-72
2021/03/03 07:28:40;;;;;;;58.47;35.83;;;665.60;742.40;;;;;;5095648;28;20485;-75
2021/03/03 07:31:10;;;;;;;80.20;44.67;;;666.40;768.00;;;;;;5099967;28;20118;-79
2021/03/03 07:33:36;;;;;;;64.75;41.33;;;666.00;768.00;;;;;;5097544;28;20024;-76
2021/03/03 07:36:04;;;;;;;56.08;37.50;;;640.80;716.80;;;;;;5097460;28;20499;-71
2021/03/03 07:38:32;;;;;;;49.55;33.05;;;691.70;742.40;;;;;;5096969;28;20020;-77
2021/03/03 07:41:06;;;;;;;48.78;32.58;;;742.40;742.40;;;;;;5097811;28;20024;-76
2021/03/03 07:43:33;;;;;;;46.75;36.03;;;743.00;691.20;;;;;;5097645;28;20024;-74
2021/03/03 07:46:09;;;;;;;61.50;44.95;;;793.60;691.20;;;;;;5097556;28;20008;-73
2021/03/03 07:48:36;;;;;;;41.95;30.85;;;794.50;665.60;;;;;;5075349;28;20028;-73
2021/03/03 07:51:05;;;;;;;38.33;29.20;;;870.50;614.40;;;;;;5096704;28;20169;-75
2021/03/03 07:53:32;;;;;;;34.75;27.65;;;794.50;665.60;;;;;;5097060;28;20361;-73
2021/03/03 07:55:59;;;;;;;43.30;32.40;;;845.10;640.00;;;;;;5103392;28;20024;-73
2021/03/03 07:58:27;;;;;;;36.63;28.85;;;845.50;614.40;;;;;;5102827;28;20024;-73
2021/03/03 08:00:54;;;;;;;37.45;29.55;;;819.80;640.00;;;;;;5097106;28;20055;-73
2021/03/03 08:03:49;;;;;;;35.45;27.63;;;819.30;665.60;;;;;;5097135;28;20054;-73
2021/03/03 08:06:25;;;;;;;33.33;26.33;;;870.90;614.40;;;;;;5076107;28;20462;-73
2021/03/03 08:09:07;;;;;;;45.67;27.98;;;922.20;563.20;;;;;;5096683;28;20030;-73
2021/03/03 08:12:13;;;;;;;38.58;27.10;;;922.10;563.20;;;;;;5097020;28;20489;-82
2021/03/03 08:14:39;;;;;;;41.88;30.95;;;972.80;563.20;;;;;;4998254;28;20134;-73
2021/03/03 08:17:10;;;;;;;33.35;27.48;;;972.90;537.60;;;;;;4994945;28;20030;-73
2021/03/03 08:19:52;;;;;;;37.67;28.98;;;947.50;537.60;;;;;;5045613;28;20332;-74
2021/03/03 08:22:21;;;;;;;36.65;28.67;;;972.80;537.60;;;;;;5085643;28;20024;-74
2021/03/03 08:24:47;;;;;;;33.67;28.45;;;948.00;537.60;;;;;;5096885;28;20015;-73
2021/03/03 08:27:30;;;;;;;31.52;26.45;;;1024.60;512.00;;;;;;5095451;28;20020;-74
2021/03/03 08:30:17;;;;;;;36.83;27.20;;;1050.40;512.00;;;;;;5096493;28;20426;-77
2021/03/03 08:32:43;;;;;;;34.88;28.73;;;1100.90;512.00;;;;;;5093416;28;20028;-78
2021/03/03 08:35:10;;;;;;;37.53;27.95;;;1050.40;512.00;;;;;;5096711;28;20020;-77
2021/03/03 08:37:38;;;;;;;37.45;28.85;;;1075.40;486.40;;;;;;5096777;28;20115;-75
2021/03/03 08:40:25;;;;;;;30.05;24.73;;;1024.50;512.00;;;;;;5096008;28;20091;-74
2021/03/03 08:42:51;;;;;;;30.05;25.30;;;1101.00;486.40;;;;;;5093606;28;20059;-74
2021/03/03 08:45:17;;;;;;;31.63;23.98;;;1050.30;512.00;;;;;;5093427;28;20043;-74
2021/03/03 08:47:45;;;;;;;34.92;25.33;;;1050.30;512.00;;;;;;5093426;28;20070;-77
2021/03/03 08:50:30;;;;;;;32.00;25.85;;;1075.50;486.40;;;;;;5092919;28;20024;-74
2021/03/03 08:53:20;;;;;;;28.83;23.95;;;1075.80;486.40;;;;;;5093466;28;20032;-74
2021/03/03 08:55:46;;;;;;;28.83;23.00;;;1101.10;486.40;;;;;;5080104;28;20095;-73
2021/03/03 08:58:33;;;;;;;23.90;20.13;;;1075.20;512.00;;;;;;5090233;28;20466;-77
2021/03/03 09:00:59;;;;;;;27.25;22.27;;;1127.30;460.80;;;;;;5087524;28;20055;-77
2021/03/03 09:03:26;;;;;;;28.65;23.45;;;1177.80;435.20;;;;;;5111932;28;20027;-74
2021/03/03 09:05:53;;;;;;;25.73;21.77;;;1178.30;435.20;;;;;;5106897;28;20110;-78
2021/03/03 09:08:23;;;;;;;27.73;22.10;;;1229.20;460.80;;;;;;5103461;28;20044;-77
2021/03/03 09:10:49;;;;;;;28.35;24.48;;;1178.30;435.20;;;;;;5094263;28;20024;-75
2021/03/03 09:13:21;;;;;;;30.25;26.55;;;1203.70;435.20;;;;;;5092886;28;20078;-80
2021/03/03 09:16:11;;;;;;;26.50;22.15;;;1126.70;486.40;;;;;;5098271;28;20039;-81
2021/03/03 09:18:38;;;;;;;;;;;1177.70;435.20;;;;;;5096529;28;20032;-76
2021/03/03 09:21:12;;;;;;;21.75;18.30;;;1203.40;460.80;;;;;;5102684;28;19995;-74
2021/03/03 09:23:39;;;;;;;20.92;17.00;;;1229.50;460.80;;;;;;5084410;28;20111;-75
2021/03/03 09:26:19;;;;;;;20.88;17.23;;;1255.10;486.40;;;;;;5094857;28;20031;-73
2021/03/03 09:28:44;;;;;;;22.33;17.35;;;1306.20;486.40;;;;;;5111903;28;20046;-73
2021/03/03 09:31:30;;;;;;;19.33;15.98;;;1331.20;512.00;;;;;;5109200;28;20484;-73
2021/03/03 09:33:56;;;;;;;18.65;14.93;;;1331.60;512.00;;;;;;5109881;28;20108;-73
2021/03/03 09:36:22;;;;;;;17.35;14.68;;;1356.90;537.60;;;;;;5105191;28;20012;-73
2021/03/03 09:38:56;;;;;;;18.00;14.80;;;1357.50;537.60;;;;;;5092189;28;20028;-72
2021/03/03 09:41:22;;;;;;;19.10;15.50;;;1382.60;563.20;;;;;;5092518;28;20028;-73
2021/03/03 09:44:02;;;;;;;16.25;14.05;;;1357.50;537.60;;;;;;5079836;28;20117;-76
2021/03/03 09:46:49;;;;;;;16.70;14.60;;;1356.80;537.60;;;;;;5107705;28;20019;-72
2021/03/03 09:49:26;;;;;;;30.13;15.60;;;1331.70;512.00;;;;;;5108266;28;20027;-72
2021/03/03 09:51:52;;;;;;;16.55;13.40;;;1357.10;537.60;;;;;;5108722;28;20019;-72
2021/03/03 09:54:35;;;;;;;14.80;12.75;;;1357.50;537.60;;;;;;5110897;28;20019;-72
2021/03/03 09:57:02;;;;;;;13.70;11.55;;;1357.70;537.60;;;;;;5110712;28;20472;-72
2021/03/03 09:59:30;;;;;;;17.55;15.40;;;1356.90;537.60;;;;;;5107368;28;20072;-78
2021/03/03 10:01:57;;;;;;;20.40;15.85;;;1357.70;537.60;;;;;;5105503;28;20027;-73
2021/03/03 10:04:24;;;;;;;20.10;18.00;;;1382.80;563.20;;;;;;5109405;28;20016;-73
2021/03/03 10:06:50;;;;;;;17.95;15.93;;;1383.30;563.20;;;;;;5109250;28;20038;-74
2021/03/03 10:09:17;;;;;;;19.33;16.08;;;1383.10;563.20;;;;;;5103274;28;20400;-73
2021/03/03 10:11:43;;;;;;;19.80;17.70;;;1382.80;563.20;;;;;;5091923;28;20034;-73
2021/03/03 10:14:09;;;;;;;16.60;14.23;;;1357.50;537.60;;;;;;5099057;28;20036;-74
2021/03/03 10:16:35;;;;;;;19.02;14.15;;;1382.90;563.20;;;;;;5092215;28;20016;-73
2021/03/03 10:19:19;;;;;;;15.40;13.35;;;1382.40;563.20;;;;;;5094959;28;20391;-74
2021/03/03 10:21:45;;;;;;;16.60;12.40;;;1382.80;563.20;;;;;;5084361;28;20024;-74
2021/03/03 10:24:15;;;;;;;13.13;11.73;;;1357.40;537.60;;;;;;5090900;28;20046;-74
2021/03/03 10:26:45;;;;;;;;;;;1357.50;537.60;;;;;;5090765;28;20031;-73
2021/03/03 10:29:11;;;;;;;13.65;11.23;;;1357.50;537.60;;;;;;5091202;28;19907;-73
2021/03/03 10:31:39;;;;;;;14.60;12.30;;;1382.90;563.20;;;;;;5108241;28;20029;-74
2021/03/03 10:34:10;;;;;;;21.85;13.05;;;1383.10;563.20;;;;;;5111111;28;20040;-73
2021/03/03 10:36:40;;;;;;;16.20;12.65;;;1382.90;563.20;;;;;;5103550;28;20051;-78
2021/03/03 10:39:07;;;;;;;17.30;14.30;;;1408.20;563.20;;;;;;5109670;28;20468;-78
2021/03/03 10:41:34;;;;;;;16.88;13.38;;;1383.30;563.20;;;;;;5108076;28;20033;-75
2021/03/03 10:44:04;;;;;;;14.43;12.77;;;1382.80;563.20;;;;;;5107527;28;20485;-76
2021/03/03 10:46:30;;;;;;;21.83;16.17;;;1408.00;563.20;;;;;;5108069;28;20031;-79
2021/03/03 10:49:14;;;;;;;18.48;14.90;;;1382.80;563.20;;;;;;5105354;28;20016;-76
2021/03/03 10:51:39;;;;;;;15.95;13.60;;;1382.90;563.20;;;;;;5106363;28;20103;-73
2021/03/03 10:54:07;;;;;;;16.05;13.20;;;1383.30;563.20;;;;;;5104600;28;20131;-73
2021/03/03 10:56:34;;;;;;;14.43;12.30;;;1382.60;563.20;;;;;;5076804;28;20397;-73
2021/03/03 10:59:03;;;;;;;19.85;12.68;;;1382.80;563.20;;;;;;5089877;28;20489;-73
2021/03/03 11:01:52;;;;;;;18.20;13.65;;;1382.90;563.20;;;;;;5091074;28;20028;-73
2021/03/03 11:04:18;;;;;;;15.45;13.50;;;1383.10;563.20;;;;;;5092769;28;20023;-73
2021/03/03 11:06:44;;;;;;;17.63;15.10;;;1408.00;563.20;;;;;;5097384;28;20448;-74
2021/03/03 11:09:12;;;;;;;15.82;13.02;;;1382.90;563.20;;;;;;5090437;28;20035;-73
2021/03/03 11:11:50;;;;;;;17.98;12.88;;;1382.40;563.20;;;;;;5091214;28;20031;-74
2021/03/03 11:14:17;;;;;;;17.00;12.05;;;1408.20;563.20;;;;;;5088427;28;20031;-74
2021/03/03 11:16:46;;;;;;;17.13;13.75;;;1408.00;563.20;;;;;;5091035;28;20077;-74
2021/03/03 11:19:12;;;;;;;17.90;15.15;;;1383.30;563.20;;;;;;5090708;28;20052;-74
2021/03/03 11:21:38;;;;;;;19.67;15.77;;;1382.60;563.20;;;;;;5098109;28;20545;-75
2021/03/03 11:24:04;;;;;;;17.98;15.07;;;1383.10;563.20;;;;;;5092999;28;20032;-79
2021/03/03 11:26:30;;;;;;;16.25;14.20;;;1382.80;563.20;;;;;;5097416;28;20497;-79
2021/03/03 11:28:55;;;;;;;16.70;14.30;;;1357.50;537.60;;;;;;5090929;28;20032;-77
2021/03/03 11:31:21;;;;;;;17.23;14.63;;;1382.40;563.20;;;;;;5090530;28;20020;-79
2021/03/03 11:33:48;;;;;;;17.70;13.55;;;1357.40;537.60;;;;;;5090725;28;20419;-76
2021/03/03 11:36:14;;;;;;;16.35;13.82;;;1356.80;537.60;;;;;;5090936;28;20048;-77
2021/03/03 11:38:40;;;;;;;16.00;13.68;;;1204.10;435.20;;;;;;5093928;28;20058;-78
2021/03/03 11:41:06;;;;;;;19.55;16.98;;;1178.30;409.60;;;;;;5090414;28;20016;-75
2021/03/03 11:43:31;;;;;;;19.98;15.95;;;1228.80;460.80;;;;;;5101192;28;20035;-81
2021/03/03 11:45:57;;;;;;;19.20;15.45;;;1254.40;486.40;;;;;;5108425;28;20099;-81
2021/03/03 11:48:23;;;;;;;17.15;14.40;;;1280.00;486.40;;;;;;5107074;28;20028;-76
2021/03/03 11:50:49;;;;;;;17.52;14.20;;;1254.90;486.40;;;;;;5087350;28;20484;-75
2021/03/03 11:53:15;;;;;;;18.75;14.02;;;1305.60;486.40;;;;;;5107081;28;20483;-74
2021/03/03 11:55:41;;;;;;;17.33;13.93;;;1306.20;486.40;;;;;;5100196;28;20047;-72
2021/03/03 11:58:07;;;;;;;17.75;14.25;;;1306.00;486.40;;;;;;5101574;28;20390;-74
2021/03/03 12:00:32;;;;;;;18.73;14.80;;;1305.70;486.40;;;;;;5106817;28;20070;-77
2021/03/03 12:02:58;;;;;;;18.67;14.15;;;1280.50;486.40;;;;;;5105239;28;20015;-74
2021/03/03 12:05:24;;;;;;;18.50;14.82;;;1306.30;486.40;;;;;;5094347;28;20069;-78
2021/03/03 12:07:50;;;;;;;15.68;13.23;;;1305.90;486.40;;;;;;5092535;28;20086;-74
2021/03/03 12:10:17;;;;;;;16.85;13.20;;;1255.00;486.40;;;;;;5108714;28;20032;-74
2021/03/03 12:12:44;;;;;;;18.98;14.35;;;1255.30;486.40;;;;;;5105472;28;20455;-73
2021/03/03 12:15:10;;;;;;;21.23;17.23;;;1305.60;486.40;;;;;;5106483;28;20084;-75